sensor_id;sensor_type;location;lat;lon;timestamp;P1;durP1;ratioP1;P2;durP2;ratioP2
2538;SDS011;1280;49.760;9.664;2022-10-31T00:00:47;9.40;;;7.30;;
2538;SDS011;1280;49.760;9.664;2022-10-31T00:03:15;10.30;;;6.53;;
2538;SDS011;1280;49.760;9.664;2022-10-31T00:05:45;10.77;;;7.10;;
2538;SDS011;1280;49.760;9.664;2022-10-31T00:08:14;9.43;;;7.27;;
2538;SDS011;1280;49.760;9.664;2022-10-31T00:10:43;9.03;;;6.80;;
2538;SDS011;1280;49.760;9.664;2022-10-31T00:13:12;13.73;;;7.60;;
2538;SDS011;1280;49.760;9.664;2022-10-31T00:15:43;10.33;;;6.80;;
2538;SDS011;1280;49.760;9.664;2022-10-31T00:18:11;8.93;;;7.10;;
2538;SDS011;1280;49.760;9.664;2022-10-31T00:20:39;9.57;;;7.37;;
2538;SDS011;1280;49.760;9.664;2022-10-31T00:23:07;9.57;;;7.23;;
2538;SDS011;1280;49.760;9.664;2022-10-31T00:25:36;10.67;;;8.50;;
2538;SDS011;1280;49.760;9.664;2022-10-31T00:28:06;10.90;;;7.27;;
2538;SDS011;1280;49.760;9.664;2022-10-31T00:30:36;15.37;;;8.00;;
2538;SDS011;1280;49.760;9.664;2022-10-31T00:33:06;10.40;;;7.90;;
2538;SDS011;1280;49.760;9.664;2022-10-31T00:35:34;15.00;;;8.10;;
2538;SDS011;1280;49.760;9.664;2022-10-31T00:38:01;10.27;;;7.10;;
2538;SDS011;1280;49.760;9.664;2022-10-31T00:40:29;12.90;;;7.90;;
2538;SDS011;1280;49.760;9.664;2022-10-31T00:42:57;10.80;;;7.10;;
2538;SDS011;1280;49.760;9.664;2022-10-31T00:45:26;11.57;;;8.23;;
2538;SDS011;1280;49.760;9.664;2022-10-31T00:47:54;10.17;;;7.73;;
2538;SDS011;1280;49.760;9.664;2022-10-31T00:50:23;20.93;;;7.37;;
2538;SDS011;1280;49.760;9.664;2022-10-31T00:52:51;11.60;;;7.70;;
2538;SDS011;1280;49.760;9.664;2022-10-31T00:55:19;13.77;;;8.07;;
2538;SDS011;1280;49.760;9.664;2022-10-31T00:57:48;10.00;;;7.47;;
2538;SDS011;1280;49.760;9.664;2022-10-31T01:00:16;10.60;;;7.30;;
2538;SDS011;1280;49.760;9.664;2022-10-31T01:02:45;9.47;;;7.50;;
2538;SDS011;1280;49.760;9.664;2022-10-31T01:05:13;12.23;;;7.50;;
2538;SDS011;1280;49.760;9.664;2022-10-31T01:07:44;12.37;;;8.43;;
2538;SDS011;1280;49.760;9.664;2022-10-31T01:10:12;8.93;;;7.13;;
2538;SDS011;1280;49.760;9.664;2022-10-31T01:12:43;10.57;;;6.80;;
2538;SDS011;1280;49.760;9.664;2022-10-31T01:15:14;9.03;;;6.53;;
2538;SDS011;1280;49.760;9.664;2022-10-31T01:17:44;10.10;;;7.10;;
2538;SDS011;1280;49.760;9.664;2022-10-31T01:20:13;10.60;;;6.53;;
2538;SDS011;1280;49.760;9.664;2022-10-31T01:22:42;10.07;;;6.30;;
2538;SDS011;1280;49.760;9.664;2022-10-31T01:25:11;9.40;;;6.67;;
2538;SDS011;1280;49.760;9.664;2022-10-31T01:27:39;8.23;;;5.57;;
2538;SDS011;1280;49.760;9.664;2022-10-31T01:30:07;11.20;;;6.53;;
2538;SDS011;1280;49.760;9.664;2022-10-31T01:32:36;9.70;;;6.17;;
2538;SDS011;1280;49.760;9.664;2022-10-31T01:35:04;9.50;;;6.70;;
2538;SDS011;1280;49.760;9.664;2022-10-31T01:37:32;10.67;;;7.50;;
2538;SDS011;1280;49.760;9.664;2022-10-31T01:40:02;11.87;;;8.83;;
2538;SDS011;1280;49.760;9.664;2022-10-31T01:42:30;17.33;;;8.53;;
2538;SDS011;1280;49.760;9.664;2022-10-31T01:44:59;11.23;;;7.47;;
2538;SDS011;1280;49.760;9.664;2022-10-31T01:47:34;12.10;;;7.53;;
2538;SDS011;1280;49.760;9.664;2022-10-31T01:50:10;9.83;;;7.03;;
2538;SDS011;1280;49.760;9.664;2022-10-31T01:52:44;9.30;;;6.63;;
2538;SDS011;1280;49.760;9.664;2022-10-31T01:55:17;8.27;;;6.50;;
2538;SDS011;1280;49.760;9.664;2022-10-31T01:57:55;9.90;;;6.63;;
2538;SDS011;1280;49.760;9.664;2022-10-31T02:00:27;8.27;;;6.37;;
2538;SDS011;1280;49.760;9.664;2022-10-31T02:02:55;7.90;;;6.43;;
2538;SDS011;1280;49.760;9.664;2022-10-31T02:05:24;8.97;;;6.07;;
2538;SDS011;1280;49.760;9.664;2022-10-31T02:07:57;7.73;;;5.37;;
2538;SDS011;1280;49.760;9.664;2022-10-31T02:10:29;9.30;;;4.37;;
2538;SDS011;1280;49.760;9.664;2022-10-31T02:12:59;6.00;;;4.47;;
2538;SDS011;1280;49.760;9.664;2022-10-31T02:15:30;7.20;;;5.77;;
2538;SDS011;1280;49.760;9.664;2022-10-31T02:17:59;7.50;;;5.73;;
2538;SDS011;1280;49.760;9.664;2022-10-31T02:20:29;9.83;;;5.50;;
2538;SDS011;1280;49.760;9.664;2022-10-31T02:26:40;9.23;;;5.80;;
2538;SDS011;1280;49.760;9.664;2022-10-31T02:29:24;6.90;;;4.73;;
2538;SDS011;1280;49.760;9.664;2022-10-31T02:32:07;6.30;;;4.20;;
2538;SDS011;1280;49.760;9.664;2022-10-31T02:34:41;5.90;;;4.30;;
2538;SDS011;1280;49.760;9.664;2022-10-31T02:37:17;7.40;;;5.70;;
2538;SDS011;1280;49.760;9.664;2022-10-31T02:39:52;9.10;;;5.40;;
2538;SDS011;1280;49.760;9.664;2022-10-31T02:42:38;7.93;;;5.13;;
2538;SDS011;1280;49.760;9.664;2022-10-31T02:45:19;7.40;;;4.50;;
2538;SDS011;1280;49.760;9.664;2022-10-31T02:47:54;7.60;;;4.00;;
2538;SDS011;1280;49.760;9.664;2022-10-31T02:50:28;15.90;;;5.10;;
2538;SDS011;1280;49.760;9.664;2022-10-31T02:53:02;5.77;;;3.73;;
2538;SDS011;1280;49.760;9.664;2022-10-31T02:55:42;7.07;;;4.50;;
2538;SDS011;1280;49.760;9.664;2022-10-31T02:58:17;6.50;;;4.60;;
2538;SDS011;1280;49.760;9.664;2022-10-31T03:00:51;6.13;;;4.40;;
2538;SDS011;1280;49.760;9.664;2022-10-31T03:03:44;6.30;;;4.60;;
2538;SDS011;1280;49.760;9.664;2022-10-31T03:06:23;7.10;;;4.33;;
2538;SDS011;1280;49.760;9.664;2022-10-31T03:08:57;8.17;;;4.83;;
2538;SDS011;1280;49.760;9.664;2022-10-31T03:11:32;5.80;;;4.17;;
2538;SDS011;1280;49.760;9.664;2022-10-31T03:14:12;7.20;;;4.80;;
2538;SDS011;1280;49.760;9.664;2022-10-31T03:16:45;9.40;;;4.90;;
2538;SDS011;1280;49.760;9.664;2022-10-31T03:19:17;5.47;;;3.83;;
2538;SDS011;1280;49.760;9.664;2022-10-31T03:21:51;6.57;;;4.27;;
2538;SDS011;1280;49.760;9.664;2022-10-31T03:24:24;5.90;;;4.00;;
2538;SDS011;1280;49.760;9.664;2022-10-31T03:26:57;5.17;;;3.93;;
2538;SDS011;1280;49.760;9.664;2022-10-31T03:29:30;5.70;;;4.10;;
2538;SDS011;1280;49.760;9.664;2022-10-31T03:32:04;5.80;;;4.10;;
2538;SDS011;1280;49.760;9.664;2022-10-31T03:34:35;5.73;;;4.00;;
2538;SDS011;1280;49.760;9.664;2022-10-31T03:37:07;6.30;;;4.13;;
2538;SDS011;1280;49.760;9.664;2022-10-31T03:39:40;5.47;;;3.90;;
2538;SDS011;1280;49.760;9.664;2022-10-31T03:42:11;5.43;;;3.90;;
2538;SDS011;1280;49.760;9.664;2022-10-31T03:44:42;4.80;;;3.47;;
2538;SDS011;1280;49.760;9.664;2022-10-31T03:47:13;5.60;;;3.63;;
2538;SDS011;1280;49.760;9.664;2022-10-31T03:49:43;6.10;;;3.50;;
2538;SDS011;1280;49.760;9.664;2022-10-31T03:52:13;5.07;;;3.53;;
2538;SDS011;1280;49.760;9.664;2022-10-31T03:54:50;5.20;;;3.63;;
2538;SDS011;1280;49.760;9.664;2022-10-31T03:57:24;4.70;;;3.07;;
2538;SDS011;1280;49.760;9.664;2022-10-31T03:59:58;4.60;;;2.93;;
2538;SDS011;1280;49.760;9.664;2022-10-31T04:02:32;6.00;;;3.80;;
2538;SDS011;1280;49.760;9.664;2022-10-31T04:05:05;6.67;;;3.63;;
2538;SDS011;1280;49.760;9.664;2022-10-31T04:07:35;6.03;;;3.97;;
2538;SDS011;1280;49.760;9.664;2022-10-31T04:10:07;5.17;;;3.43;;
2538;SDS011;1280;49.760;9.664;2022-10-31T04:12:41;7.23;;;3.77;;
2538;SDS011;1280;49.760;9.664;2022-10-31T04:15:17;7.07;;;4.40;;
2538;SDS011;1280;49.760;9.664;2022-10-31T04:17:47;6.03;;;3.93;;
2538;SDS011;1280;49.760;9.664;2022-10-31T04:20:28;6.03;;;3.77;;
2538;SDS011;1280;49.760;9.664;2022-10-31T04:22:58;7.53;;;4.00;;
2538;SDS011;1280;49.760;9.664;2022-10-31T04:25:26;6.67;;;4.10;;
2538;SDS011;1280;49.760;9.664;2022-10-31T04:27:54;5.27;;;3.80;;
2538;SDS011;1280;49.760;9.664;2022-10-31T04:30:22;5.63;;;3.60;;
2538;SDS011;1280;49.760;9.664;2022-10-31T04:32:50;5.90;;;3.90;;
2538;SDS011;1280;49.760;9.664;2022-10-31T04:35:20;6.30;;;4.47;;
2538;SDS011;1280;49.760;9.664;2022-10-31T04:37:48;6.27;;;4.33;;
2538;SDS011;1280;49.760;9.664;2022-10-31T04:40:16;5.37;;;4.00;;
2538;SDS011;1280;49.760;9.664;2022-10-31T04:42:44;5.20;;;3.90;;
2538;SDS011;1280;49.760;9.664;2022-10-31T04:45:12;5.40;;;3.60;;
2538;SDS011;1280;49.760;9.664;2022-10-31T04:47:49;4.80;;;3.33;;
2538;SDS011;1280;49.760;9.664;2022-10-31T04:50:17;5.20;;;3.30;;
2538;SDS011;1280;49.760;9.664;2022-10-31T04:52:47;4.90;;;3.40;;
2538;SDS011;1280;49.760;9.664;2022-10-31T04:55:19;5.40;;;3.30;;
2538;SDS011;1280;49.760;9.664;2022-10-31T04:58:14;5.37;;;3.50;;
2538;SDS011;1280;49.760;9.664;2022-10-31T05:00:51;7.50;;;4.50;;
2538;SDS011;1280;49.760;9.664;2022-10-31T05:03:20;6.80;;;3.80;;
2538;SDS011;1280;49.760;9.664;2022-10-31T05:05:50;5.60;;;3.87;;
2538;SDS011;1280;49.760;9.664;2022-10-31T05:08:19;5.20;;;3.20;;
2538;SDS011;1280;49.760;9.664;2022-10-31T05:10:50;4.80;;;2.93;;
2538;SDS011;1280;49.760;9.664;2022-10-31T05:13:18;5.13;;;3.23;;
2538;SDS011;1280;49.760;9.664;2022-10-31T05:16:33;5.80;;;3.70;;
2538;SDS011;1280;49.760;9.664;2022-10-31T05:19:38;4.67;;;2.97;;
2538;SDS011;1280;49.760;9.664;2022-10-31T05:22:25;4.90;;;3.10;;
2538;SDS011;1280;49.760;9.664;2022-10-31T05:24:55;5.27;;;3.70;;
2538;SDS011;1280;49.760;9.664;2022-10-31T05:27:23;5.30;;;3.83;;
2538;SDS011;1280;49.760;9.664;2022-10-31T05:29:51;5.80;;;3.57;;
2538;SDS011;1280;49.760;9.664;2022-10-31T05:32:19;5.53;;;3.97;;
2538;SDS011;1280;49.760;9.664;2022-10-31T05:35:07;7.80;;;3.87;;
2538;SDS011;1280;49.760;9.664;2022-10-31T05:37:59;6.00;;;3.90;;
2538;SDS011;1280;49.760;9.664;2022-10-31T05:40:29;6.73;;;3.90;;
2538;SDS011;1280;49.760;9.664;2022-10-31T05:42:58;6.90;;;4.33;;
2538;SDS011;1280;49.760;9.664;2022-10-31T05:45:26;7.00;;;4.47;;
2538;SDS011;1280;49.760;9.664;2022-10-31T05:47:58;5.07;;;3.80;;
2538;SDS011;1280;49.760;9.664;2022-10-31T05:51:03;5.30;;;3.63;;
2538;SDS011;1280;49.760;9.664;2022-10-31T05:53:31;4.97;;;3.53;;
2538;SDS011;1280;49.760;9.664;2022-10-31T05:56:01;4.40;;;3.43;;
2538;SDS011;1280;49.760;9.664;2022-10-31T05:58:29;5.63;;;3.33;;
2538;SDS011;1280;49.760;9.664;2022-10-31T06:01:01;5.60;;;3.60;;
2538;SDS011;1280;49.760;9.664;2022-10-31T06:03:30;4.93;;;3.47;;
2538;SDS011;1280;49.760;9.664;2022-10-31T06:06:00;5.70;;;3.60;;
2538;SDS011;1280;49.760;9.664;2022-10-31T06:08:32;5.27;;;3.43;;
2538;SDS011;1280;49.760;9.664;2022-10-31T06:11:05;4.40;;;3.00;;
2538;SDS011;1280;49.760;9.664;2022-10-31T06:14:08;6.30;;;3.80;;
2538;SDS011;1280;49.760;9.664;2022-10-31T06:16:51;5.37;;;3.60;;
2538;SDS011;1280;49.760;9.664;2022-10-31T06:19:37;5.43;;;3.40;;
2538;SDS011;1280;49.760;9.664;2022-10-31T06:22:07;5.00;;;3.70;;
2538;SDS011;1280;49.760;9.664;2022-10-31T06:24:37;6.07;;;3.50;;
2538;SDS011;1280;49.760;9.664;2022-10-31T06:27:18;5.40;;;3.80;;
2538;SDS011;1280;49.760;9.664;2022-10-31T06:29:48;4.40;;;3.17;;
2538;SDS011;1280;49.760;9.664;2022-10-31T06:32:23;4.97;;;3.13;;
2538;SDS011;1280;49.760;9.664;2022-10-31T06:34:51;4.53;;;2.90;;
2538;SDS011;1280;49.760;9.664;2022-10-31T06:37:19;4.83;;;3.10;;
2538;SDS011;1280;49.760;9.664;2022-10-31T06:39:48;5.83;;;3.40;;
2538;SDS011;1280;49.760;9.664;2022-10-31T06:42:18;6.97;;;4.00;;
2538;SDS011;1280;49.760;9.664;2022-10-31T06:44:46;7.23;;;3.83;;
2538;SDS011;1280;49.760;9.664;2022-10-31T06:47:33;7.40;;;5.10;;
2538;SDS011;1280;49.760;9.664;2022-10-31T06:50:25;12.23;;;7.90;;
2538;SDS011;1280;49.760;9.664;2022-10-31T06:52:53;21.70;;;9.00;;
2538;SDS011;1280;49.760;9.664;2022-10-31T06:55:23;14.17;;;8.30;;
2538;SDS011;1280;49.760;9.664;2022-10-31T06:57:54;11.13;;;6.73;;
2538;SDS011;1280;49.760;9.664;2022-10-31T07:00:29;8.53;;;5.43;;
2538;SDS011;1280;49.760;9.664;2022-10-31T07:03:04;13.50;;;9.93;;
2538;SDS011;1280;49.760;9.664;2022-10-31T07:05:34;9.50;;;6.90;;
2538;SDS011;1280;49.760;9.664;2022-10-31T07:08:04;9.53;;;6.20;;
2538;SDS011;1280;49.760;9.664;2022-10-31T07:10:35;8.37;;;5.90;;
2538;SDS011;1280;49.760;9.664;2022-10-31T07:13:10;8.70;;;5.10;;
2538;SDS011;1280;49.760;9.664;2022-10-31T07:15:44;11.10;;;5.50;;
2538;SDS011;1280;49.760;9.664;2022-10-31T07:18:12;7.53;;;5.97;;
2538;SDS011;1280;49.760;9.664;2022-10-31T07:20:41;9.57;;;5.60;;
2538;SDS011;1280;49.760;9.664;2022-10-31T07:23:10;7.40;;;5.20;;
2538;SDS011;1280;49.760;9.664;2022-10-31T07:25:38;7.20;;;5.00;;
2538;SDS011;1280;49.760;9.664;2022-10-31T07:28:31;8.97;;;5.47;;
2538;SDS011;1280;49.760;9.664;2022-10-31T07:30:59;10.13;;;5.90;;
2538;SDS011;1280;49.760;9.664;2022-10-31T07:33:27;8.27;;;5.90;;
2538;SDS011;1280;49.760;9.664;2022-10-31T07:36:21;10.27;;;5.73;;
2538;SDS011;1280;49.760;9.664;2022-10-31T07:38:51;7.17;;;4.90;;
2538;SDS011;1280;49.760;9.664;2022-10-31T07:41:20;10.50;;;4.77;;
2538;SDS011;1280;49.760;9.664;2022-10-31T07:43:50;7.20;;;3.87;;
2538;SDS011;1280;49.760;9.664;2022-10-31T07:46:51;6.13;;;4.03;;
2538;SDS011;1280;49.760;9.664;2022-10-31T07:49:38;5.30;;;3.50;;
2538;SDS011;1280;49.760;9.664;2022-10-31T07:52:34;5.83;;;3.50;;
2538;SDS011;1280;49.760;9.664;2022-10-31T07:55:38;6.37;;;3.87;;
2538;SDS011;1280;49.760;9.664;2022-10-31T07:58:07;6.37;;;3.73;;
2538;SDS011;1280;49.760;9.664;2022-10-31T08:00:40;6.00;;;3.93;;
2538;SDS011;1280;49.760;9.664;2022-10-31T08:03:13;5.33;;;3.50;;
2538;SDS011;1280;49.760;9.664;2022-10-31T08:06:02;5.47;;;3.73;;
2538;SDS011;1280;49.760;9.664;2022-10-31T08:08:49;5.10;;;3.73;;
2538;SDS011;1280;49.760;9.664;2022-10-31T08:11:18;8.07;;;4.00;;
2538;SDS011;1280;49.760;9.664;2022-10-31T08:13:46;8.33;;;4.80;;
2538;SDS011;1280;49.760;9.664;2022-10-31T08:16:16;7.00;;;4.23;;
2538;SDS011;1280;49.760;9.664;2022-10-31T08:18:52;8.83;;;4.80;;
2538;SDS011;1280;49.760;9.664;2022-10-31T08:21:22;13.57;;;4.97;;
2538;SDS011;1280;49.760;9.664;2022-10-31T08:23:50;7.50;;;4.53;;
2538;SDS011;1280;49.760;9.664;2022-10-31T08:26:21;6.13;;;4.73;;
2538;SDS011;1280;49.760;9.664;2022-10-31T08:28:52;12.10;;;6.13;;
2538;SDS011;1280;49.760;9.664;2022-10-31T08:31:23;10.10;;;5.77;;
2538;SDS011;1280;49.760;9.664;2022-10-31T08:34:18;8.30;;;5.57;;
2538;SDS011;1280;49.760;9.664;2022-10-31T08:37:04;9.00;;;5.60;;
2538;SDS011;1280;49.760;9.664;2022-10-31T08:39:38;7.37;;;5.30;;
2538;SDS011;1280;49.760;9.664;2022-10-31T08:42:06;8.33;;;5.73;;
2538;SDS011;1280;49.760;9.664;2022-10-31T08:44:34;13.97;;;6.93;;
2538;SDS011;1280;49.760;9.664;2022-10-31T08:47:04;8.93;;;6.40;;
2538;SDS011;1280;49.760;9.664;2022-10-31T08:49:33;8.67;;;6.10;;
2538;SDS011;1280;49.760;9.664;2022-10-31T08:52:01;9.37;;;5.80;;
2538;SDS011;1280;49.760;9.664;2022-10-31T08:54:34;8.20;;;5.83;;
2538;SDS011;1280;49.760;9.664;2022-10-31T08:57:25;17.63;;;6.13;;
2538;SDS011;1280;49.760;9.664;2022-10-31T08:59:53;23.87;;;5.77;;
2538;SDS011;1280;49.760;9.664;2022-10-31T09:02:30;12.43;;;6.37;;
2538;SDS011;1280;49.760;9.664;2022-10-31T09:04:59;12.73;;;5.70;;
2538;SDS011;1280;49.760;9.664;2022-10-31T09:07:28;8.87;;;5.67;;
2538;SDS011;1280;49.760;9.664;2022-10-31T09:09:57;22.47;;;8.00;;
2538;SDS011;1280;49.760;9.664;2022-10-31T09:12:29;12.87;;;6.87;;
2538;SDS011;1280;49.760;9.664;2022-10-31T09:15:20;17.40;;;7.83;;
2538;SDS011;1280;49.760;9.664;2022-10-31T09:17:56;20.30;;;7.87;;
2538;SDS011;1280;49.760;9.664;2022-10-31T09:20:31;19.43;;;6.60;;
2538;SDS011;1280;49.760;9.664;2022-10-31T09:23:02;15.07;;;6.67;;
2538;SDS011;1280;49.760;9.664;2022-10-31T09:25:33;11.83;;;7.87;;
2538;SDS011;1280;49.760;9.664;2022-10-31T09:28:21;11.17;;;6.70;;
2538;SDS011;1280;49.760;9.664;2022-10-31T09:30:52;17.43;;;6.97;;
2538;SDS011;1280;49.760;9.664;2022-10-31T09:33:42;16.97;;;7.27;;
2538;SDS011;1280;49.760;9.664;2022-10-31T09:36:36;17.03;;;6.40;;
2538;SDS011;1280;49.760;9.664;2022-10-31T09:39:07;24.27;;;8.20;;
2538;SDS011;1280;49.760;9.664;2022-10-31T09:41:42;12.00;;;6.73;;
2538;SDS011;1280;49.760;9.664;2022-10-31T09:44:26;12.07;;;8.23;;
2538;SDS011;1280;49.760;9.664;2022-10-31T09:47:01;11.77;;;8.27;;
2538;SDS011;1280;49.760;9.664;2022-10-31T09:49:48;14.97;;;8.30;;
2538;SDS011;1280;49.760;9.664;2022-10-31T09:52:29;21.13;;;8.00;;
2538;SDS011;1280;49.760;9.664;2022-10-31T09:55:04;14.37;;;8.43;;
2538;SDS011;1280;49.760;9.664;2022-10-31T09:57:40;29.10;;;11.10;;
2538;SDS011;1280;49.760;9.664;2022-10-31T10:00:11;35.10;;;10.07;;
2538;SDS011;1280;49.760;9.664;2022-10-31T10:02:46;11.80;;;8.80;;
2538;SDS011;1280;49.760;9.664;2022-10-31T10:05:20;13.80;;;8.40;;
2538;SDS011;1280;49.760;9.664;2022-10-31T10:07:54;32.53;;;7.90;;
2538;SDS011;1280;49.760;9.664;2022-10-31T10:10:48;17.13;;;8.30;;
2538;SDS011;1280;49.760;9.664;2022-10-31T10:13:44;21.03;;;9.13;;
2538;SDS011;1280;49.760;9.664;2022-10-31T10:16:38;17.17;;;9.03;;
2538;SDS011;1280;49.760;9.664;2022-10-31T10:19:19;14.30;;;8.50;;
2538;SDS011;1280;49.760;9.664;2022-10-31T10:21:58;12.13;;;8.03;;
2538;SDS011;1280;49.760;9.664;2022-10-31T10:24:34;17.07;;;9.10;;
2538;SDS011;1280;49.760;9.664;2022-10-31T10:27:17;16.60;;;9.73;;
2538;SDS011;1280;49.760;9.664;2022-10-31T10:29:55;14.83;;;9.33;;
2538;SDS011;1280;49.760;9.664;2022-10-31T10:32:28;15.33;;;9.57;;
2538;SDS011;1280;49.760;9.664;2022-10-31T10:35:11;14.40;;;9.13;;
2538;SDS011;1280;49.760;9.664;2022-10-31T10:37:49;18.23;;;10.80;;
2538;SDS011;1280;49.760;9.664;2022-10-31T10:40:20;18.47;;;12.17;;
2538;SDS011;1280;49.760;9.664;2022-10-31T10:42:53;22.30;;;13.43;;
2538;SDS011;1280;49.760;9.664;2022-10-31T10:45:46;21.70;;;13.40;;
2538;SDS011;1280;49.760;9.664;2022-10-31T10:48:44;27.17;;;16.07;;
2538;SDS011;1280;49.760;9.664;2022-10-31T10:51:19;21.30;;;14.00;;
2538;SDS011;1280;49.760;9.664;2022-10-31T10:57:21;22.37;;;13.20;;
2538;SDS011;1280;49.760;9.664;2022-10-31T10:59:56;22.67;;;14.10;;
2538;SDS011;1280;49.760;9.664;2022-10-31T11:02:30;22.73;;;13.63;;
2538;SDS011;1280;49.760;9.664;2022-10-31T11:05:00;22.20;;;12.60;;
2538;SDS011;1280;49.760;9.664;2022-10-31T11:07:37;23.80;;;13.50;;
2538;SDS011;1280;49.760;9.664;2022-10-31T11:10:10;18.70;;;12.07;;
2538;SDS011;1280;49.760;9.664;2022-10-31T11:12:43;23.23;;;13.90;;
2538;SDS011;1280;49.760;9.664;2022-10-31T11:15:18;25.93;;;16.87;;
2538;SDS011;1280;49.760;9.664;2022-10-31T11:17:48;28.57;;;18.13;;
2538;SDS011;1280;49.760;9.664;2022-10-31T11:20:26;31.13;;;15.87;;
2538;SDS011;1280;49.760;9.664;2022-10-31T11:23:02;26.40;;;16.13;;
2538;SDS011;1280;49.760;9.664;2022-10-31T11:25:33;34.23;;;16.80;;
2538;SDS011;1280;49.760;9.664;2022-10-31T11:28:03;31.30;;;17.53;;
2538;SDS011;1280;49.760;9.664;2022-10-31T11:30:35;31.23;;;17.67;;
2538;SDS011;1280;49.760;9.664;2022-10-31T11:33:13;26.27;;;17.90;;
2538;SDS011;1280;49.760;9.664;2022-10-31T11:35:46;32.57;;;18.33;;
2538;SDS011;1280;49.760;9.664;2022-10-31T11:38:28;31.50;;;18.83;;
2538;SDS011;1280;49.760;9.664;2022-10-31T11:41:05;32.90;;;19.73;;
2538;SDS011;1280;49.760;9.664;2022-10-31T11:43:48;35.10;;;19.30;;
2538;SDS011;1280;49.760;9.664;2022-10-31T11:46:19;32.87;;;18.70;;
2538;SDS011;1280;49.760;9.664;2022-10-31T11:48:52;28.83;;;17.43;;
2538;SDS011;1280;49.760;9.664;2022-10-31T11:51:22;30.00;;;18.93;;
2538;SDS011;1280;49.760;9.664;2022-10-31T11:54:00;30.30;;;18.07;;
2538;SDS011;1280;49.760;9.664;2022-10-31T11:56:40;30.57;;;20.10;;
2538;SDS011;1280;49.760;9.664;2022-10-31T11:59:18;35.90;;;19.33;;
2538;SDS011;1280;49.760;9.664;2022-10-31T12:01:51;32.57;;;19.83;;
2538;SDS011;1280;49.760;9.664;2022-10-31T12:04:23;39.20;;;25.37;;
2538;SDS011;1280;49.760;9.664;2022-10-31T12:07:00;35.03;;;23.00;;
2538;SDS011;1280;49.760;9.664;2022-10-31T12:09:28;29.90;;;19.63;;
2538;SDS011;1280;49.760;9.664;2022-10-31T12:12:20;32.80;;;20.90;;
2538;SDS011;1280;49.760;9.664;2022-10-31T12:15:29;38.07;;;23.60;;
2538;SDS011;1280;49.760;9.664;2022-10-31T12:18:10;37.17;;;22.00;;
2538;SDS011;1280;49.760;9.664;2022-10-31T12:20:58;38.07;;;21.57;;
2538;SDS011;1280;49.760;9.664;2022-10-31T12:23:41;34.27;;;21.87;;
2538;SDS011;1280;49.760;9.664;2022-10-31T12:26:18;32.50;;;22.37;;
2538;SDS011;1280;49.760;9.664;2022-10-31T12:28:55;36.90;;;24.30;;
2538;SDS011;1280;49.760;9.664;2022-10-31T12:31:45;37.20;;;22.67;;
2538;SDS011;1280;49.760;9.664;2022-10-31T12:34:27;37.90;;;22.93;;
2538;SDS011;1280;49.760;9.664;2022-10-31T12:37:25;34.73;;;22.60;;
2538;SDS011;1280;49.760;9.664;2022-10-31T12:40:09;38.33;;;22.37;;
2538;SDS011;1280;49.760;9.664;2022-10-31T12:42:53;41.90;;;23.83;;
2538;SDS011;1280;49.760;9.664;2022-10-31T12:45:44;36.80;;;22.13;;
2538;SDS011;1280;49.760;9.664;2022-10-31T12:51:31;36.77;;;22.60;;
2538;SDS011;1280;49.760;9.664;2022-10-31T12:54:11;41.13;;;23.70;;
2538;SDS011;1280;49.760;9.664;2022-10-31T12:56:49;36.23;;;24.07;;
2538;SDS011;1280;49.760;9.664;2022-10-31T12:59:26;38.07;;;25.17;;
2538;SDS011;1280;49.760;9.664;2022-10-31T13:01:59;38.80;;;24.13;;
2538;SDS011;1280;49.760;9.664;2022-10-31T13:04:35;44.03;;;25.67;;
2538;SDS011;1280;49.760;9.664;2022-10-31T13:07:11;39.40;;;24.77;;
2538;SDS011;1280;49.760;9.664;2022-10-31T13:09:45;38.10;;;24.60;;
2538;SDS011;1280;49.760;9.664;2022-10-31T13:12:18;37.57;;;25.13;;
2538;SDS011;1280;49.760;9.664;2022-10-31T13:14:49;39.77;;;25.23;;
2538;SDS011;1280;49.760;9.664;2022-10-31T13:17:22;38.80;;;24.93;;
2538;SDS011;1280;49.760;9.664;2022-10-31T13:20:05;38.27;;;22.60;;
2538;SDS011;1280;49.760;9.664;2022-10-31T13:22:45;40.40;;;24.40;;
2538;SDS011;1280;49.760;9.664;2022-10-31T13:25:17;35.30;;;23.60;;
2538;SDS011;1280;49.760;9.664;2022-10-31T13:27:51;38.17;;;25.00;;
2538;SDS011;1280;49.760;9.664;2022-10-31T13:30:23;38.70;;;24.63;;
2538;SDS011;1280;49.760;9.664;2022-10-31T13:32:55;42.70;;;24.73;;
2538;SDS011;1280;49.760;9.664;2022-10-31T13:35:28;40.03;;;24.80;;
2538;SDS011;1280;49.760;9.664;2022-10-31T13:38:05;41.47;;;25.80;;
2538;SDS011;1280;49.760;9.664;2022-10-31T13:40:41;36.97;;;24.67;;
2538;SDS011;1280;49.760;9.664;2022-10-31T13:43:27;42.40;;;27.07;;
2538;SDS011;1280;49.760;9.664;2022-10-31T13:46:01;46.07;;;25.87;;
2538;SDS011;1280;49.760;9.664;2022-10-31T13:48:39;46.33;;;28.17;;
2538;SDS011;1280;49.760;9.664;2022-10-31T13:51:09;41.73;;;25.20;;
2538;SDS011;1280;49.760;9.664;2022-10-31T13:53:40;43.03;;;28.07;;
2538;SDS011;1280;49.760;9.664;2022-10-31T13:56:15;43.77;;;28.73;;
2538;SDS011;1280;49.760;9.664;2022-10-31T13:59:12;48.47;;;27.13;;
2538;SDS011;1280;49.760;9.664;2022-10-31T14:01:47;43.27;;;27.47;;
2538;SDS011;1280;49.760;9.664;2022-10-31T14:04:18;47.37;;;28.63;;
2538;SDS011;1280;49.760;9.664;2022-10-31T14:06:58;44.23;;;25.97;;
2538;SDS011;1280;49.760;9.664;2022-10-31T14:09:34;49.70;;;29.93;;
2538;SDS011;1280;49.760;9.664;2022-10-31T14:12:05;46.77;;;29.53;;
2538;SDS011;1280;49.760;9.664;2022-10-31T14:14:43;44.40;;;28.47;;
2538;SDS011;1280;49.760;9.664;2022-10-31T14:17:20;44.83;;;28.43;;
2538;SDS011;1280;49.760;9.664;2022-10-31T14:20:01;45.13;;;28.50;;
2538;SDS011;1280;49.760;9.664;2022-10-31T14:22:45;40.10;;;26.80;;
2538;SDS011;1280;49.760;9.664;2022-10-31T14:25:28;44.77;;;25.67;;
2538;SDS011;1280;49.760;9.664;2022-10-31T14:27:59;45.20;;;27.40;;
2538;SDS011;1280;49.760;9.664;2022-10-31T14:30:29;44.50;;;27.70;;
2538;SDS011;1280;49.760;9.664;2022-10-31T14:32:58;45.30;;;28.40;;
2538;SDS011;1280;49.760;9.664;2022-10-31T14:35:31;43.97;;;28.13;;
2538;SDS011;1280;49.760;9.664;2022-10-31T14:38:17;46.87;;;29.43;;
2538;SDS011;1280;49.760;9.664;2022-10-31T14:41:12;44.17;;;29.67;;
2538;SDS011;1280;49.760;9.664;2022-10-31T14:44:21;49.60;;;28.70;;
2538;SDS011;1280;49.760;9.664;2022-10-31T14:47:12;43.87;;;28.20;;
2538;SDS011;1280;49.760;9.664;2022-10-31T14:49:51;51.40;;;31.23;;
2538;SDS011;1280;49.760;9.664;2022-10-31T14:52:48;46.10;;;29.50;;
2538;SDS011;1280;49.760;9.664;2022-10-31T14:55:18;54.43;;;30.47;;
2538;SDS011;1280;49.760;9.664;2022-10-31T14:57:50;47.50;;;29.83;;
2538;SDS011;1280;49.760;9.664;2022-10-31T15:00:21;47.10;;;28.40;;
2538;SDS011;1280;49.760;9.664;2022-10-31T15:03:06;48.07;;;29.80;;
2538;SDS011;1280;49.760;9.664;2022-10-31T15:05:41;53.83;;;31.60;;
2538;SDS011;1280;49.760;9.664;2022-10-31T15:08:13;50.20;;;31.63;;
2538;SDS011;1280;49.760;9.664;2022-10-31T15:11:02;50.53;;;29.50;;
2538;SDS011;1280;49.760;9.664;2022-10-31T15:13:32;47.67;;;29.47;;
2538;SDS011;1280;49.760;9.664;2022-10-31T15:16:00;49.63;;;29.30;;
2538;SDS011;1280;49.760;9.664;2022-10-31T15:18:28;48.63;;;30.20;;
2538;SDS011;1280;49.760;9.664;2022-10-31T15:20:56;54.90;;;31.70;;
2538;SDS011;1280;49.760;9.664;2022-10-31T15:23:24;51.67;;;30.63;;
2538;SDS011;1280;49.760;9.664;2022-10-31T15:25:57;60.40;;;30.80;;
2538;SDS011;1280;49.760;9.664;2022-10-31T15:28:26;49.20;;;30.13;;
2538;SDS011;1280;49.760;9.664;2022-10-31T15:30:57;49.60;;;30.00;;
2538;SDS011;1280;49.760;9.664;2022-10-31T15:33:27;54.90;;;31.60;;
2538;SDS011;1280;49.760;9.664;2022-10-31T15:36:04;56.17;;;31.00;;
2538;SDS011;1280;49.760;9.664;2022-10-31T15:38:38;48.67;;;30.70;;
2538;SDS011;1280;49.760;9.664;2022-10-31T15:41:19;46.63;;;28.63;;
2538;SDS011;1280;49.760;9.664;2022-10-31T15:43:56;54.37;;;30.57;;
2538;SDS011;1280;49.760;9.664;2022-10-31T15:46:30;46.43;;;29.17;;
2538;SDS011;1280;49.760;9.664;2022-10-31T15:49:00;48.60;;;29.43;;
2538;SDS011;1280;49.760;9.664;2022-10-31T15:51:28;48.50;;;31.27;;
2538;SDS011;1280;49.760;9.664;2022-10-31T15:54:00;55.00;;;32.00;;
2538;SDS011;1280;49.760;9.664;2022-10-31T15:56:29;44.20;;;28.77;;
2538;SDS011;1280;49.760;9.664;2022-10-31T15:58:59;50.90;;;31.20;;
2538;SDS011;1280;49.760;9.664;2022-10-31T16:01:31;49.07;;;27.63;;